Aiken Municipal Airport


Codes: KAIK/AIK
Name: Aiken Municipal Airport
City: Aiken
Country: United States
Elevation: 528 ft.
Wikipedia:

Photos at Aiken Municipal Airport


   Photos courtesy of SpottingLog. You can add your own sightings and photos by signing up for a free trial today.



No photos found.

Weather at Aiken Municipal Airport


Time (UTC)DescriptionTempratureWindCloud coverageVisibilityPressureHumidity
21-Feb-2024 03:00Clear Sky7°C7 mph, E1%10000m1026hPa57%
21-Feb-2024 06:00Clear Sky7°C7 mph, E1%10000m1027hPa60%
21-Feb-2024 09:00Clear Sky5°C4 mph, NE0%10000m1027hPa62%
21-Feb-2024 12:00Clear Sky4°C7 mph, NE0%10000m1028hPa70%
21-Feb-2024 15:00Clear Sky9°C7 mph, NE0%10000m1029hPa54%
21-Feb-2024 18:00Clear Sky13°C4 mph, NE0%10000m1027hPa44%
21-Feb-2024 21:00Scattered Clouds14°C2 mph, NE25%10000m1024hPa42%
22-Feb-2024 00:00Few Clouds11°C4 mph, SE21%10000m1024hPa52%
22-Feb-2024 03:00Scattered Clouds9°C7 mph, S34%10000m1023hPa60%
22-Feb-2024 06:00Broken Clouds8°C7 mph, S54%10000m1023hPa66%
22-Feb-2024 09:00Scattered Clouds6°C7 mph, S29%10000m1022hPa72%
22-Feb-2024 12:00Few Clouds6°C7 mph, S15%10000m1021hPa75%
22-Feb-2024 15:00Broken Clouds12°C11 mph, SW55%10000m1019hPa57%
22-Feb-2024 18:00Broken Clouds16°C13 mph, SW77%10000m1016hPa45%
22-Feb-2024 21:00Overcast Clouds17°C13 mph, SW100%10000m1012hPa45%
23-Feb-2024 00:00Overcast Clouds14°C11 mph, SW100%10000m1011hPa53%
23-Feb-2024 03:00Overcast Clouds13°C16 mph, S99%10000m1009hPa58%
23-Feb-2024 06:00Overcast Clouds13°C16 mph, SW99%10000m1006hPa71%
23-Feb-2024 09:00Light Rain13°C16 mph, SW100%10000m1004hPa87%
23-Feb-2024 12:00Light Rain13°C13 mph, SW100%10000m1004hPa92%
23-Feb-2024 15:00Light Rain16°C16 mph, SW100%10000m1004hPa83%
23-Feb-2024 18:00Light Rain17°C13 mph, W99%10000m1003hPa71%
23-Feb-2024 21:00Light Rain18°C11 mph, NW66%10000m1002hPa56%
24-Feb-2024 00:00Scattered Clouds14°C9 mph, NW46%10000m1005hPa57%
24-Feb-2024 03:00Clear Sky11°C9 mph, NW10%10000m1008hPa61%
24-Feb-2024 06:00Few Clouds9°C9 mph, NW21%10000m1009hPa72%
24-Feb-2024 09:00Clear Sky7°C7 mph, NW1%10000m1010hPa80%
24-Feb-2024 12:00Clear Sky6°C7 mph, NW2%10000m1012hPa81%
24-Feb-2024 15:00Clear Sky11°C9 mph, NW0%10000m1013hPa55%
24-Feb-2024 18:00Clear Sky15°C13 mph, NW1%10000m1012hPa38%
24-Feb-2024 21:00Broken Clouds14°C16 mph, W75%10000m1012hPa47%
25-Feb-2024 00:00Light Rain10°C7 mph, NW52%10000m1015hPa64%
25-Feb-2024 03:00Clear Sky7°C9 mph, N7%10000m1019hPa76%
25-Feb-2024 06:00Clear Sky5°C7 mph, N4%10000m1021hPa83%
25-Feb-2024 09:00Clear Sky4°C7 mph, NE0%10000m1021hPa89%
25-Feb-2024 12:00Clear Sky3°C4 mph, NE1%10000m1023hPa88%
25-Feb-2024 15:00Clear Sky9°C4 mph, SE0%10000m1024hPa65%
25-Feb-2024 18:00Clear Sky14°C7 mph, SW3%10000m1022hPa45%
25-Feb-2024 21:00Broken Clouds15°C7 mph, SW70%10000m1021hPa38%
26-Feb-2024 00:00Overcast Clouds12°C4 mph, SW85%10000m1022hPa52%